createdAt,value
2018-02-24T00:01:21.606Z,70.85
2018-02-24T00:03:49.123Z,51.30
2018-02-24T00:06:16.612Z,62.30
2018-02-24T00:08:44.142Z,54.53
2018-02-24T00:11:11.639Z,59.60
2018-02-24T00:13:39.141Z,63.13
2018-02-24T00:16:07.407Z,64.75
2018-02-24T00:18:35.654Z,52.75
2018-02-24T00:21:03.169Z,70.18
2018-02-24T00:23:30.682Z,54.60
2018-02-24T00:25:58.207Z,57.88
2018-02-24T00:28:25.667Z,53.25
2018-02-24T00:30:53.177Z,63.33
2018-02-24T00:33:20.684Z,58.55
2018-02-24T00:35:48.189Z,52.17
2018-02-24T00:38:15.680Z,57.13
2018-02-24T00:40:43.927Z,50.03
2018-02-24T00:43:11.441Z,60.92
2018-02-24T00:45:38.916Z,54.08
2018-02-24T00:48:06.428Z,55.05
2018-02-24T00:50:33.912Z,54.25
2018-02-24T00:53:01.381Z,58.40
2018-02-24T00:55:28.892Z,58.87
2018-02-24T00:57:57.155Z,54.97
2018-02-24T01:00:24.649Z,55.53
2018-02-24T01:02:52.139Z,57.72
2018-02-24T01:05:19.689Z,63.63
2018-02-24T01:07:47.174Z,68.12
2018-02-24T01:10:15.070Z,46.13
2018-02-24T01:12:43.323Z,62.62
2018-02-24T01:15:10.792Z,51.88
2018-02-24T01:17:38.298Z,52.67
2018-02-24T01:20:05.792Z,55.92
2018-02-24T01:22:33.294Z,52.90
2018-02-24T01:25:00.779Z,54.97
2018-02-24T01:27:28.322Z,60.78
2018-02-24T01:29:55.844Z,49.80
2018-02-24T01:32:23.333Z,58.30
2018-02-24T01:34:50.840Z,55.60
2018-02-24T01:37:18.339Z,55.20
2018-02-24T01:39:46.615Z,51.65
2018-02-24T01:42:14.863Z,62.03
2018-02-24T01:44:42.372Z,54.25
2018-02-24T01:47:09.873Z,50.85
2018-02-24T01:49:37.359Z,53.42
2018-02-24T01:52:04.847Z,52.00
2018-02-24T01:54:32.307Z,54.15
2018-02-24T01:56:59.799Z,51.70
2018-02-24T01:59:27.270Z,58.15
2018-02-24T02:01:54.782Z,47.10
2018-02-24T02:04:22.261Z,46.78
2018-02-24T02:06:49.766Z,51.90
2018-02-24T02:09:18.027Z,52.17
2018-02-24T02:11:45.540Z,60.88
2018-02-24T02:14:13.023Z,52.40
2018-02-24T02:16:40.491Z,46.90
2018-02-24T02:19:08.010Z,43.38
2018-02-24T02:21:35.475Z,49.20
2018-02-24T02:24:02.979Z,55.42
2018-02-24T02:26:30.454Z,60.00
2018-02-24T02:28:58.758Z,57.22
2018-02-24T02:31:26.228Z,59.03
2018-02-24T02:33:53.705Z,52.90
2018-02-24T02:36:21.207Z,49.60
2018-02-24T02:38:48.682Z,60.70
2018-02-24T02:41:16.998Z,48.53
2018-02-24T02:43:44.484Z,48.53
2018-02-24T02:46:12.012Z,54.05
2018-02-24T02:48:39.478Z,58.08
2018-02-24T02:51:06.993Z,48.67
2018-02-24T02:53:35.301Z,60.65
2018-02-24T02:56:02.882Z,60.22
2018-02-24T02:58:30.378Z,56.30
2018-02-24T03:00:57.859Z,53.72
2018-02-24T03:03:26.119Z,55.17
2018-02-24T03:05:54.359Z,49.13
2018-02-24T03:08:21.830Z,54.88
2018-02-24T03:10:49.362Z,53.35
2018-02-24T03:13:16.838Z,53.65
2018-02-24T03:15:44.334Z,58.75
2018-02-24T03:18:12.592Z,57.95
2018-02-24T03:20:40.119Z,54.60
2018-02-24T03:23:07.594Z,55.53
2018-02-24T03:25:35.093Z,60.45
2018-02-24T03:28:03.371Z,53.17
2018-02-24T03:30:31.653Z,58.15
2018-02-24T03:32:59.886Z,57.80
2018-02-24T03:35:27.399Z,59.75
2018-02-24T03:37:54.889Z,58.58
2018-02-24T03:40:22.391Z,56.40
2018-02-24T03:42:50.654Z,62.65
2018-02-24T03:45:18.943Z,60.97
2018-02-24T03:47:47.232Z,60.97
2018-02-24T03:50:15.470Z,64.85
2018-02-24T03:52:42.952Z,57.50
2018-02-24T03:55:10.434Z,69.18
2018-02-24T03:57:37.922Z,57.88
2018-02-24T04:00:05.454Z,60.88
2018-02-24T04:02:32.916Z,64.15
2018-02-24T04:05:00.391Z,66.60
2018-02-24T04:07:27.921Z,65.18
2018-02-24T04:09:56.183Z,67.97
2018-02-24T04:12:23.685Z,64.72
2018-02-24T04:14:51.166Z,61.25
2018-02-24T04:17:18.662Z,64.85
2018-02-24T04:19:46.905Z,60.03
2018-02-24T04:22:14.419Z,61.42
2018-02-24T04:24:41.878Z,57.40
2018-02-24T04:27:09.401Z,59.33
2018-02-24T04:29:36.862Z,63.78
2018-02-24T04:32:04.372Z,70.80
2018-02-24T04:34:31.846Z,65.40
2018-02-24T04:36:59.318Z,61.88
2018-02-24T04:39:27.587Z,57.05
2018-02-24T04:41:55.069Z,72.28
2018-02-24T04:44:22.582Z,73.57
2018-02-24T04:46:50.042Z,76.87
2018-02-24T04:49:17.542Z,57.35
2018-02-24T04:51:45.012Z,65.03
2018-02-24T04:54:13.283Z,71.90
2018-02-24T04:56:40.743Z,58.87
2018-02-24T04:59:08.245Z,64.95
2018-02-24T05:01:35.740Z,69.80
2018-02-24T05:04:03.242Z,69.35
2018-02-24T05:06:31.626Z,67.87
2018-02-24T05:08:59.094Z,68.50
2018-02-24T05:11:26.618Z,73.28
2018-02-24T05:13:54.846Z,61.47
2018-02-24T05:16:22.362Z,60.67
2018-02-24T05:18:50.622Z,70.57
2018-02-24T05:21:18.087Z,67.97
2018-02-24T05:23:45.601Z,68.90
2018-02-24T05:26:13.082Z,67.57
2018-02-24T05:28:40.562Z,70.00
2018-02-24T05:31:08.091Z,87.80
2018-02-24T05:33:35.578Z,64.53
2018-02-24T05:36:03.059Z,74.12
2018-02-24T05:38:31.347Z,77.57
2018-02-24T05:40:58.809Z,57.08
2018-02-24T05:43:26.330Z,72.70
2018-02-24T05:45:53.790Z,72.75
2018-02-24T05:48:21.282Z,68.25
2018-02-24T05:50:48.766Z,72.78
2018-02-24T05:53:16.255Z,71.97
2018-02-24T05:55:43.791Z,66.93
2018-02-24T05:58:11.270Z,63.33
2018-02-24T06:00:39.551Z,70.82
2018-02-24T06:03:07.023Z,70.05
2018-02-24T06:05:34.548Z,62.75
2018-02-24T06:08:02.012Z,71.97
2018-02-24T06:10:29.491Z,69.05
2018-02-24T06:12:56.984Z,64.93
2018-02-24T06:15:24.470Z,60.17
2018-02-24T06:17:52.022Z,72.28
2018-02-24T06:20:21.862Z,65.93
2018-02-24T06:22:49.345Z,70.47
2018-02-24T06:25:18.370Z,56.40
2018-02-24T06:27:46.641Z,57.90
2018-02-24T06:30:14.932Z,67.15
2018-02-24T06:32:42.392Z,71.75
2018-02-24T06:35:09.885Z,74.22
2018-02-24T06:37:37.402Z,74.85
2018-02-24T06:40:04.909Z,65.65
2018-02-24T06:42:32.390Z,70.43
2018-02-24T06:44:59.910Z,72.62
2018-02-24T06:47:27.379Z,75.22
2018-02-24T06:49:54.851Z,58.22
2018-02-24T06:52:22.369Z,76.47
2018-02-24T06:54:49.885Z,58.25
2018-02-24T06:57:17.382Z,57.20
2018-02-24T06:59:44.881Z,65.43
2018-02-24T07:02:12.351Z,56.28
2018-02-24T07:04:41.361Z,55.70
2018-02-24T07:07:09.594Z,72.90
2018-02-24T07:09:37.118Z,61.80
2018-02-24T07:12:04.600Z,58.95
2018-02-24T07:14:32.119Z,56.83
2018-02-24T07:17:00.386Z,61.65
2018-02-24T07:19:28.686Z,63.35
2018-02-24T07:21:57.383Z,59.60
2018-02-24T07:24:24.858Z,64.82
2018-02-24T07:26:52.396Z,59.60
2018-02-24T07:29:19.893Z,60.80
2018-02-24T07:31:47.423Z,62.30
2018-02-24T07:34:14.916Z,60.12
2018-02-24T07:36:42.404Z,60.80
2018-02-24T07:39:09.916Z,59.05
2018-02-24T07:41:37.382Z,53.40
2018-02-24T07:44:04.891Z,55.92
2018-02-24T07:46:33.133Z,66.95
2018-02-24T07:49:01.402Z,53.45
2018-02-24T07:51:28.912Z,57.35
2018-02-24T07:53:56.451Z,54.40
2018-02-24T07:56:23.950Z,65.55
2018-02-24T07:58:51.445Z,56.58
2018-02-24T08:01:18.930Z,53.85
2018-02-24T08:03:47.252Z,52.40
2018-02-24T08:06:14.731Z,45.12
2018-02-24T08:08:42.231Z,57.42
2018-02-24T08:11:10.488Z,57.78
2018-02-24T08:13:37.973Z,61.28
2018-02-24T08:16:06.233Z,58.65
2018-02-24T08:18:34.515Z,56.17
2018-02-24T08:21:02.764Z,48.00
2018-02-24T08:23:30.282Z,59.17
2018-02-24T08:25:57.771Z,48.75
2018-02-24T08:28:25.310Z,52.10
2018-02-24T08:30:52.798Z,48.72
2018-02-24T08:33:20.328Z,44.42
2018-02-24T08:35:47.835Z,54.25
2018-02-24T08:38:15.346Z,47.90
2018-02-24T08:40:42.840Z,54.17
2018-02-24T08:43:10.305Z,49.63
2018-02-24T08:45:37.819Z,40.55
2018-02-24T08:48:05.314Z,42.17
2018-02-24T08:50:32.792Z,50.40
2018-02-24T08:53:00.330Z,45.10
2018-02-24T08:55:27.832Z,45.17
2018-02-24T08:57:56.089Z,51.22
2018-02-24T09:00:24.365Z,49.08
2018-02-24T09:02:51.892Z,44.67
2018-02-24T09:05:19.359Z,46.55
2018-02-24T09:07:46.874Z,42.38
2018-02-24T09:10:14.355Z,41.83
2018-02-24T09:12:41.909Z,47.25
2018-02-24T09:15:09.418Z,45.55
2018-02-24T09:17:36.949Z,47.05
2018-02-24T09:20:04.448Z,41.85
2018-02-24T09:22:33.222Z,46.80
2018-02-24T09:25:00.778Z,46.72
2018-02-24T09:27:28.263Z,40.53
2018-02-24T09:29:56.569Z,38.50
2018-02-24T09:32:24.048Z,50.08
2018-02-24T09:34:51.584Z,42.10
2018-02-24T09:37:19.084Z,40.38
2018-02-24T09:39:46.564Z,38.05
2018-02-24T09:42:14.822Z,48.67
2018-02-24T09:44:42.314Z,42.10
2018-02-24T09:47:09.859Z,42.22
2018-02-24T09:49:38.150Z,27.67
2018-02-24T09:52:05.650Z,40.42
2018-02-24T09:54:33.143Z,42.25
2018-02-24T09:57:00.663Z,41.58
2018-02-24T09:59:28.154Z,37.08
2018-02-24T10:01:55.653Z,45.50
2018-02-24T10:04:23.150Z,34.53
2018-02-24T10:06:50.643Z,34.97
2018-02-24T10:09:18.915Z,39.00
2018-02-24T10:11:46.429Z,40.22
2018-02-24T10:14:13.908Z,41.67
2018-02-24T10:16:41.403Z,38.53
2018-02-24T10:19:09.667Z,32.30
2018-02-24T10:21:37.179Z,35.47
2018-02-24T10:24:04.709Z,36.38
2018-02-24T10:26:32.963Z,34.70
2018-02-24T10:29:00.465Z,34.60
2018-02-24T10:31:27.987Z,39.25
2018-02-24T10:33:56.254Z,48.10
2018-02-24T10:36:23.759Z,35.22
2018-02-24T10:38:51.256Z,37.72
2018-02-24T10:41:18.786Z,32.55
2018-02-24T10:43:46.267Z,39.05
2018-02-24T10:46:13.755Z,32.78
2018-02-24T10:48:41.259Z,39.83
2018-02-24T10:51:08.743Z,40.17
2018-02-24T10:53:36.267Z,41.95
2018-02-24T10:56:03.784Z,38.03
2018-02-24T10:58:31.283Z,39.50
2018-02-24T11:00:58.788Z,39.88
2018-02-24T11:03:26.276Z,30.60
2018-02-24T11:05:54.574Z,34.22
2018-02-24T11:08:22.810Z,31.02
2018-02-24T11:10:50.324Z,32.95
2018-02-24T11:13:17.801Z,31.52
2018-02-24T11:15:45.293Z,37.45
2018-02-24T11:18:12.795Z,29.37
2018-02-24T11:20:40.315Z,32.28
2018-02-24T11:23:07.801Z,33.45
2018-02-24T11:25:35.268Z,34.58
2018-02-24T11:28:02.790Z,31.12
2018-02-24T11:30:30.292Z,32.58
2018-02-24T11:32:57.793Z,35.33
2018-02-24T11:35:25.310Z,29.42
2018-02-24T11:37:52.822Z,32.67
2018-02-24T11:40:21.068Z,34.67
2018-02-24T11:42:48.586Z,31.42
2018-02-24T11:45:16.848Z,31.02
2018-02-24T11:47:45.131Z,28.92
2018-02-24T11:50:13.371Z,27.40
2018-02-24T11:52:40.839Z,25.77
2018-02-24T11:55:08.346Z,28.45
2018-02-24T11:57:35.863Z,28.20
2018-02-24T12:00:03.399Z,29.05
2018-02-24T12:02:30.909Z,28.83
2018-02-24T12:04:58.416Z,27.02
2018-02-24T12:07:25.902Z,23.60
2018-02-24T12:09:53.412Z,23.02
2018-02-24T12:12:20.915Z,23.92
2018-02-24T12:14:48.438Z,23.12
2018-02-24T12:17:15.902Z,27.33
2018-02-24T12:19:43.437Z,24.87
2018-02-24T12:22:10.938Z,31.65
2018-02-24T12:24:38.439Z,21.62
2018-02-24T12:27:06.707Z,24.08
2018-02-24T12:29:34.967Z,27.15
2018-02-24T12:32:02.479Z,33.20
2018-02-24T12:34:29.991Z,22.25
2018-02-24T12:36:57.518Z,23.92
2018-02-24T12:39:25.006Z,22.92
2018-02-24T12:41:52.539Z,20.17
2018-02-24T12:44:20.069Z,27.15
2018-02-24T12:46:47.559Z,21.40
2018-02-24T12:49:15.099Z,23.17
2018-02-24T12:51:42.608Z,23.00
2018-02-24T12:54:10.141Z,24.63
2018-02-24T12:56:37.634Z,25.33
2018-02-24T12:59:06.535Z,26.83
2018-02-24T13:01:34.018Z,28.70
2018-02-24T13:04:01.534Z,18.37
2018-02-24T13:06:29.818Z,20.75
2018-02-24T13:08:58.064Z,20.77
2018-02-24T13:11:25.554Z,25.73
2018-02-24T13:13:53.805Z,26.25
2018-02-24T13:16:21.302Z,24.33
2018-02-24T13:18:48.775Z,19.60
2018-02-24T13:21:16.283Z,18.85
2018-02-24T13:23:43.784Z,22.85
2018-02-24T13:26:11.282Z,25.30
2018-02-24T13:28:38.801Z,15.55
2018-02-24T13:31:06.301Z,23.50
2018-02-24T13:33:33.813Z,14.18
2018-02-24T13:36:02.052Z,18.25
2018-02-24T13:38:29.558Z,17.05
2018-02-24T13:40:57.131Z,17.73
2018-02-24T13:43:24.638Z,20.35
2018-02-24T13:45:52.134Z,16.25
2018-02-24T13:48:19.649Z,22.17
2018-02-24T13:50:47.134Z,17.15
2018-02-24T13:53:15.363Z,18.83
2018-02-24T13:55:42.868Z,19.48
2018-02-24T13:58:11.111Z,22.42
2018-02-24T14:00:38.622Z,22.98
2018-02-24T14:03:06.151Z,17.85
2018-02-24T14:05:33.623Z,17.02
2018-02-24T14:08:01.882Z,14.13
2018-02-24T14:10:29.378Z,13.70
2018-02-24T14:12:56.875Z,18.35
2018-02-24T14:15:24.408Z,24.50
2018-02-24T14:17:51.913Z,24.50
2018-02-24T14:20:19.386Z,25.20
2018-02-24T14:22:46.859Z,20.45
2018-02-24T14:25:15.427Z,21.73
2018-02-24T14:27:43.667Z,18.67
2018-02-24T14:30:11.896Z,16.25
2018-02-24T14:32:40.142Z,19.87
2018-02-24T14:35:07.635Z,22.35
2018-02-24T14:37:35.135Z,20.80
2018-02-24T14:40:02.608Z,20.10
2018-02-24T14:42:30.116Z,19.62
2018-02-24T14:44:58.335Z,23.23
2018-02-24T14:47:25.858Z,21.80
2018-02-24T14:49:53.357Z,21.50
2018-02-24T14:52:20.876Z,23.92
2018-02-24T14:54:48.376Z,21.60
2018-02-24T14:57:15.878Z,21.52
2018-02-24T14:59:43.367Z,19.75
2018-02-24T15:02:10.869Z,21.60
2018-02-24T15:04:38.367Z,16.65
2018-02-24T15:07:05.828Z,19.35
2018-02-24T15:09:33.331Z,21.42
2018-02-24T15:12:00.814Z,23.85
2018-02-24T15:14:29.128Z,19.48
2018-02-24T15:16:56.608Z,19.55
2018-02-24T15:19:24.076Z,18.25
2018-02-24T15:21:51.628Z,8.13
2018-02-24T15:24:19.123Z,15.85
2018-02-24T15:26:46.623Z,16.10
2018-02-24T15:29:14.134Z,14.20
2018-02-24T15:31:42.435Z,20.65
2018-02-24T15:34:10.733Z,15.93
2018-02-24T15:36:38.209Z,17.27
2018-02-24T15:39:05.724Z,15.50
2018-02-24T15:41:33.990Z,16.73
2018-02-24T15:44:02.256Z,14.95
2018-02-24T15:46:29.795Z,14.50
2018-02-24T15:48:57.295Z,16.40
2018-02-24T15:51:25.542Z,15.38
2018-02-24T15:53:53.042Z,17.25
2018-02-24T15:56:20.545Z,18.58
2018-02-24T15:58:48.046Z,15.35
2018-02-24T16:01:15.540Z,15.30
2018-02-24T16:03:43.048Z,13.70
2018-02-24T16:06:10.547Z,21.35
2018-02-24T16:08:38.087Z,15.75
2018-02-24T16:11:06.368Z,19.77
2018-02-24T16:13:34.659Z,15.35
2018-02-24T16:16:02.133Z,15.80
2018-02-24T16:18:29.615Z,19.90
2018-02-24T16:20:57.111Z,16.65
2018-02-24T16:23:25.400Z,18.80
2018-02-24T16:25:53.680Z,18.40
2018-02-24T16:28:21.919Z,16.77
2018-02-24T16:30:49.414Z,14.25
2018-02-24T16:33:16.913Z,16.98
2018-02-24T16:35:44.405Z,16.62
2018-02-24T16:38:11.893Z,15.23
2018-02-24T16:40:39.422Z,20.33
2018-02-24T16:43:06.910Z,16.10
2018-02-24T16:45:35.169Z,17.85
2018-02-24T16:48:02.664Z,14.32
2018-02-24T16:50:30.135Z,14.57
2018-02-24T16:52:57.666Z,15.10
2018-02-24T16:55:25.140Z,16.40
2018-02-24T16:57:52.672Z,13.70
2018-02-24T17:00:20.924Z,23.20
2018-02-24T17:02:48.431Z,13.98
2018-02-24T17:05:15.913Z,15.27
2018-02-24T17:07:43.442Z,13.50
2018-02-24T17:10:10.949Z,15.07
2018-02-24T17:12:38.770Z,15.18
2018-02-24T17:15:06.282Z,13.93
2018-02-24T17:17:33.760Z,16.02
2018-02-24T17:20:01.284Z,19.33
2018-02-24T17:22:28.766Z,12.35
2018-02-24T17:24:56.332Z,16.62
2018-02-24T17:27:23.824Z,12.95
2018-02-24T17:29:51.302Z,14.55
2018-02-24T17:32:18.794Z,16.45
2018-02-24T17:34:46.377Z,14.40
2018-02-24T17:37:14.647Z,15.02
2018-02-24T17:39:42.139Z,16.17
2018-02-24T17:42:09.666Z,21.10
2018-02-24T17:44:37.958Z,16.05
2018-02-24T17:47:06.231Z,17.37
2018-02-24T17:49:34.471Z,16.98
2018-02-24T17:52:01.971Z,16.98
2018-02-24T17:54:29.478Z,12.70
2018-02-24T17:56:57.017Z,15.68
2018-02-24T17:59:24.510Z,12.82
2018-02-24T18:01:51.970Z,18.70
2018-02-24T18:04:19.470Z,14.63
2018-02-24T18:06:47.702Z,14.35
2018-02-24T18:09:15.203Z,25.70
2018-02-24T18:11:42.703Z,15.18
2018-02-24T18:14:10.223Z,16.77
2018-02-24T18:16:38.464Z,15.60
2018-02-24T18:19:05.941Z,13.90
2018-02-24T18:21:34.240Z,14.60
2018-02-24T18:24:01.702Z,10.30
2018-02-24T18:26:29.239Z,14.30
2018-02-24T18:28:57.493Z,11.65
2018-02-24T18:31:25.000Z,16.98
2018-02-24T18:33:52.471Z,15.38
2018-02-24T18:36:19.990Z,10.68
2018-02-24T18:38:48.240Z,13.00
2018-02-24T18:41:15.732Z,10.20
2018-02-24T18:43:44.031Z,13.38
2018-02-24T18:46:11.491Z,11.50
2018-02-24T18:48:39.014Z,12.23
2018-02-24T18:51:06.514Z,11.88
2018-02-24T18:53:34.058Z,12.77
2018-02-24T18:56:01.558Z,11.02
2018-02-24T18:58:29.060Z,13.62
2018-02-24T19:00:57.457Z,10.63
2018-02-24T19:03:25.709Z,10.52
2018-02-24T19:05:53.225Z,21.30
2018-02-24T19:08:20.691Z,12.30
2018-02-24T19:10:48.235Z,18.87
2018-02-24T19:13:15.735Z,13.98
2018-02-24T19:15:43.233Z,16.77
2018-02-24T19:18:11.611Z,18.15
2018-02-24T19:20:39.103Z,9.95
2018-02-24T19:23:06.620Z,11.25
2018-02-24T19:25:34.865Z,13.00
2018-02-24T19:28:02.363Z,11.98
2018-02-24T19:30:29.836Z,10.70
2018-02-24T19:32:57.350Z,13.82
2018-02-24T19:35:24.871Z,13.52
2018-02-24T19:37:52.372Z,12.52
2018-02-24T19:40:19.890Z,11.12
2018-02-24T19:42:47.368Z,11.60
2018-02-24T19:45:14.892Z,12.43
2018-02-24T19:47:42.407Z,16.40
2018-02-24T19:50:10.664Z,13.40
2018-02-24T19:52:38.173Z,11.55
2018-02-24T19:55:05.712Z,14.45
2018-02-24T19:57:33.979Z,12.25
2018-02-24T20:00:01.465Z,15.20
2018-02-24T20:02:29.003Z,21.02
2018-02-24T20:04:56.504Z,13.38
2018-02-24T20:07:23.984Z,14.85
2018-02-24T20:09:51.520Z,21.42
2018-02-24T20:12:19.034Z,15.90
2018-02-24T20:14:46.552Z,10.80
2018-02-24T20:17:14.026Z,13.15
2018-02-24T20:19:41.571Z,13.65
2018-02-24T20:22:09.063Z,12.55
2018-02-24T20:24:36.551Z,15.68
2018-02-24T20:27:04.073Z,16.77
2018-02-24T20:29:31.546Z,11.38
2018-02-24T20:31:59.053Z,11.27
2018-02-24T20:34:26.533Z,20.02
2018-02-24T20:36:54.063Z,25.25
2018-02-24T20:39:21.560Z,13.27
2018-02-24T20:41:49.060Z,15.43
2018-02-24T20:44:17.332Z,8.10
2018-02-24T20:46:45.598Z,17.85
2018-02-24T20:49:13.866Z,17.87
2018-02-24T20:51:41.339Z,12.23
2018-02-24T20:54:08.864Z,20.02
2018-02-24T20:56:36.352Z,7.90
2018-02-24T20:59:04.630Z,13.50
2018-02-24T21:01:32.873Z,10.23
2018-02-24T21:04:00.396Z,12.60
2018-02-24T21:06:27.918Z,10.82
2018-02-24T21:08:55.354Z,14.98
2018-02-24T21:11:22.873Z,13.35
2018-02-24T21:13:50.360Z,9.40
2018-02-24T21:16:17.853Z,13.45
2018-02-24T21:18:45.322Z,13.40
2018-02-24T21:21:13.615Z,12.65
2018-02-24T21:23:41.097Z,19.55
2018-02-24T21:26:08.611Z,16.27
2018-02-24T21:28:36.075Z,11.27
2018-02-24T21:31:04.335Z,15.70
2018-02-24T21:33:31.840Z,10.57
2018-02-24T21:35:59.330Z,12.02
2018-02-24T21:38:26.857Z,13.38
2018-02-24T21:40:54.353Z,12.23
2018-02-24T21:43:21.851Z,15.65
2018-02-24T21:45:50.111Z,9.60
2018-02-24T21:48:17.575Z,10.73
2018-02-24T21:50:45.843Z,20.60
2018-02-24T21:53:14.071Z,11.88
2018-02-24T21:55:41.574Z,11.10
2018-02-24T21:58:10.552Z,12.90
2018-02-24T22:00:38.065Z,13.62
2018-02-24T22:03:05.541Z,13.50
2018-02-24T22:05:33.113Z,10.05
2018-02-24T22:08:00.547Z,9.52
2018-02-24T22:10:28.081Z,15.07
2018-02-24T22:12:56.326Z,9.15
2018-02-24T22:15:23.824Z,10.77
2018-02-24T22:17:52.112Z,12.63
2018-02-24T22:20:19.601Z,10.23
2018-02-24T22:22:47.091Z,14.82
2018-02-24T22:25:14.639Z,9.00
2018-02-24T22:27:42.133Z,13.80
2018-02-24T22:30:10.366Z,9.57
2018-02-24T22:32:37.883Z,10.90
2018-02-24T22:35:05.374Z,12.37
2018-02-24T22:37:32.843Z,12.32
2018-02-24T22:40:00.371Z,20.75
2018-02-24T22:42:27.846Z,8.38
